createdAt,value
2018-05-04T00:00:42.443Z,0.00
2018-05-04T00:01:42.447Z,0.00
2018-05-04T00:02:42.444Z,0.00
2018-05-04T00:03:42.454Z,0.00
2018-05-04T00:04:42.432Z,0.00
2018-05-04T00:05:42.431Z,0.00
2018-05-04T00:06:42.434Z,0.00
2018-05-04T00:07:42.420Z,0.00
2018-05-04T00:08:42.419Z,0.00
2018-05-04T00:09:42.433Z,0.00
2018-05-04T00:10:42.407Z,0.00
2018-05-04T00:11:42.402Z,0.00
2018-05-04T00:12:42.397Z,0.00
2018-05-04T00:13:42.404Z,0.00
2018-05-04T00:14:42.389Z,0.00
2018-05-04T00:15:42.397Z,0.00
2018-05-04T00:16:43.366Z,0.00
2018-05-04T00:17:42.389Z,0.00
2018-05-04T00:18:42.372Z,0.00
2018-05-04T00:19:42.402Z,0.00
2018-05-04T00:20:42.363Z,0.00
2018-05-04T00:21:42.360Z,0.00
2018-05-04T00:22:42.363Z,0.00
2018-05-04T00:23:42.349Z,0.00
2018-05-04T00:24:42.347Z,0.00
2018-05-04T00:25:42.342Z,0.00
2018-05-04T00:26:42.332Z,0.00
2018-05-04T00:27:42.330Z,0.00
2018-05-04T00:28:42.327Z,0.00
2018-05-04T00:29:42.316Z,0.00
2018-05-04T00:30:42.318Z,0.00
2018-05-04T00:31:42.317Z,0.00
2018-05-04T00:32:42.308Z,0.00
2018-05-04T00:33:42.307Z,0.00
2018-05-04T00:34:42.299Z,0.00
2018-05-04T00:35:42.288Z,0.00
2018-05-04T00:36:42.299Z,0.00
2018-05-04T00:37:42.285Z,0.00
2018-05-04T00:38:42.272Z,0.00
2018-05-04T00:39:42.277Z,0.00
2018-05-04T00:40:42.280Z,0.00
2018-05-04T00:41:42.263Z,0.00
2018-05-04T00:42:42.268Z,0.00
2018-05-04T00:43:42.262Z,0.00
2018-05-04T00:44:42.255Z,0.00
2018-05-04T00:45:42.255Z,0.00
2018-05-04T00:46:42.254Z,0.00
2018-05-04T00:47:42.239Z,0.00
2018-05-04T00:48:42.261Z,0.00
2018-05-04T00:49:42.233Z,0.00
2018-05-04T00:50:42.226Z,0.00
2018-05-04T00:51:42.230Z,0.00
2018-05-04T00:52:42.229Z,0.00
2018-05-04T00:53:42.209Z,0.00
2018-05-04T00:54:42.206Z,0.00
2018-05-04T00:55:42.220Z,0.00
2018-05-04T00:56:42.213Z,0.00
2018-05-04T00:57:42.193Z,0.00
2018-05-04T00:58:42.189Z,0.00
2018-05-04T00:59:42.182Z,0.00
2018-05-04T01:00:42.181Z,0.00
2018-05-04T01:01:42.176Z,0.00
2018-05-04T01:02:42.174Z,0.00
2018-05-04T01:03:42.169Z,0.00
2018-05-04T01:04:42.164Z,0.00
2018-05-04T01:05:42.171Z,0.00
2018-05-04T01:06:42.157Z,0.00
2018-05-04T01:07:42.146Z,0.00
2018-05-04T01:08:42.144Z,0.00
2018-05-04T01:09:42.141Z,0.00
2018-05-04T01:10:42.151Z,0.00
2018-05-04T01:11:42.119Z,0.00
2018-05-04T01:12:42.128Z,0.00
2018-05-04T01:13:42.135Z,0.00
2018-05-04T01:14:42.121Z,0.00
2018-05-04T01:15:42.121Z,0.00
2018-05-04T01:16:42.115Z,0.00
2018-05-04T01:17:42.101Z,0.00
2018-05-04T01:18:42.098Z,0.00
2018-05-04T01:19:42.121Z,0.00
2018-05-04T01:20:42.108Z,0.00
2018-05-04T01:21:42.086Z,0.00
2018-05-04T01:22:42.943Z,0.00
2018-05-04T01:23:42.076Z,0.00
2018-05-04T01:24:42.070Z,0.00
2018-05-04T01:25:42.059Z,0.00
2018-05-04T01:26:42.065Z,0.00
2018-05-04T01:27:42.077Z,0.00
2018-05-04T01:28:42.054Z,0.00
2018-05-04T01:29:42.046Z,0.00
2018-05-04T02:02:07.140Z,0.00
2018-05-04T02:03:07.102Z,0.00
2018-05-04T02:05:00.044Z,0.00
2018-05-04T02:06:00.027Z,0.00
2018-05-04T02:07:52.966Z,0.00
2018-05-04T02:08:52.916Z,0.00
2018-05-04T02:10:45.856Z,0.00
2018-05-04T02:11:45.827Z,0.00
2018-05-04T02:13:38.796Z,0.00
2018-05-04T02:14:38.769Z,0.00
2018-05-04T02:16:31.700Z,0.00
2018-05-04T02:17:31.680Z,0.00
2018-05-04T02:19:24.617Z,0.00
2018-05-04T02:20:24.592Z,0.00
2018-05-04T02:22:17.572Z,0.00
2018-05-04T02:23:17.554Z,0.00
2018-05-04T02:25:10.522Z,0.00
2018-05-04T02:26:10.498Z,0.00
2018-05-04T02:28:03.465Z,0.00
2018-05-04T02:29:03.430Z,0.00
2018-05-04T02:30:56.375Z,0.00
2018-05-04T02:31:56.348Z,0.00
2018-05-04T02:33:49.387Z,0.00
2018-05-04T02:34:49.356Z,0.00
2018-05-04T02:36:42.278Z,0.00
2018-05-04T02:37:42.263Z,0.00
2018-05-04T02:39:35.194Z,0.00
2018-05-04T02:40:35.167Z,0.00
2018-05-04T02:42:28.105Z,0.00
2018-05-04T02:43:28.075Z,0.00
2018-05-04T02:45:21.061Z,0.00
2018-05-04T02:46:21.019Z,0.00
2018-05-04T02:48:14.030Z,0.00
2018-05-04T02:49:14.009Z,0.00
2018-05-04T02:51:06.934Z,0.00
2018-05-04T02:52:06.899Z,0.00
2018-05-04T02:53:59.810Z,0.00
2018-05-04T02:54:59.796Z,0.00
2018-05-04T02:56:52.712Z,0.00
2018-05-04T02:57:52.698Z,0.00
2018-05-04T02:59:45.688Z,0.00
2018-05-04T03:00:45.639Z,0.00
2018-05-04T03:02:38.548Z,0.00
2018-05-04T03:03:38.536Z,0.00
2018-05-04T03:05:31.549Z,0.00
2018-05-04T03:06:31.526Z,0.00
2018-05-04T03:08:24.532Z,0.00
2018-05-04T03:09:24.523Z,0.00
2018-05-04T03:11:17.493Z,0.00
2018-05-04T03:12:17.480Z,0.00
2018-05-04T03:14:10.431Z,0.00
2018-05-04T03:15:10.421Z,0.00
2018-05-04T03:17:03.326Z,0.00
2018-05-04T03:18:03.312Z,0.00
2018-05-04T03:19:56.261Z,0.00
2018-05-04T03:20:56.234Z,0.00
2018-05-04T03:22:49.187Z,0.00
2018-05-04T03:23:49.173Z,0.00
2018-05-04T03:25:42.163Z,0.00
2018-05-04T03:26:42.143Z,0.00
2018-05-04T03:28:35.146Z,0.00
2018-05-04T03:29:35.104Z,0.00
2018-05-04T03:31:28.077Z,0.00
2018-05-04T03:32:28.053Z,0.00
2018-05-04T03:34:21.011Z,0.00
2018-05-04T03:35:20.990Z,0.00
2018-05-04T03:37:13.918Z,0.00
2018-05-04T03:38:13.906Z,0.00
2018-05-04T03:40:06.877Z,0.00
2018-05-04T03:41:06.827Z,0.00
2018-05-04T03:42:59.839Z,0.00
2018-05-04T03:43:59.821Z,0.00
2018-05-04T03:45:52.740Z,0.00
2018-05-04T03:46:52.719Z,0.00
2018-05-04T03:48:45.672Z,0.00
2018-05-04T03:49:45.656Z,0.00
2018-05-04T03:51:38.656Z,5.63
2018-05-04T03:52:38.646Z,5.63
2018-05-04T03:54:32.590Z,5.63
2018-05-04T03:55:32.567Z,5.63
2018-05-04T03:57:25.472Z,5.63
2018-05-04T03:58:25.456Z,5.63
2018-05-04T04:00:18.397Z,5.63
2018-05-04T04:01:18.378Z,5.63
2018-05-04T04:03:11.343Z,11.25
2018-05-04T04:04:11.366Z,11.25
2018-05-04T04:06:04.246Z,11.25
2018-05-04T04:07:04.224Z,16.88
2018-05-04T04:08:57.184Z,16.88
2018-05-04T04:09:57.171Z,22.50
2018-05-04T04:11:50.138Z,22.50
2018-05-04T04:12:50.109Z,28.13
2018-05-04T04:14:43.098Z,28.13
2018-05-04T04:15:43.087Z,28.13
2018-05-04T04:17:36.044Z,28.13
2018-05-04T04:18:36.027Z,33.75
2018-05-04T04:20:28.931Z,45.00
2018-05-04T04:21:28.908Z,50.63
2018-05-04T04:23:21.866Z,39.38
2018-05-04T04:24:21.859Z,39.38
2018-05-04T04:26:14.819Z,56.25
2018-05-04T04:27:14.795Z,61.88
2018-05-04T04:29:07.788Z,78.75
2018-05-04T04:30:07.729Z,84.38
2018-05-04T04:32:00.645Z,101.25
2018-05-04T04:33:00.624Z,106.88
2018-05-04T04:34:53.522Z,106.88
2018-05-04T04:35:53.509Z,101.25
2018-05-04T04:37:46.538Z,67.50
2018-05-04T04:38:46.594Z,67.50
2018-05-04T04:40:39.470Z,56.25
2018-05-04T04:41:39.446Z,50.63
2018-05-04T04:43:32.360Z,50.63
2018-05-04T04:44:32.338Z,56.25
2018-05-04T04:46:25.299Z,73.13
2018-05-04T04:47:25.277Z,84.38
2018-05-04T04:49:18.220Z,106.88
2018-05-04T04:50:18.205Z,112.50
2018-05-04T04:52:11.138Z,146.25
2018-05-04T04:53:11.106Z,146.25
2018-05-04T04:55:03.980Z,163.13
2018-05-04T04:56:04.002Z,174.38
2018-05-04T04:57:56.918Z,208.13
2018-05-04T04:58:56.893Z,230.63
2018-05-04T05:00:49.872Z,241.88
2018-05-04T05:01:49.902Z,264.38
2018-05-04T05:03:42.796Z,258.75
2018-05-04T05:04:42.789Z,264.38
2018-05-04T05:06:35.681Z,270.00
2018-05-04T05:07:35.658Z,270.00
2018-05-04T05:09:28.621Z,253.13
2018-05-04T05:10:28.596Z,253.13
2018-05-04T05:12:21.584Z,253.13
2018-05-04T05:13:21.563Z,264.38
2018-05-04T05:15:14.524Z,236.25
2018-05-04T05:16:14.510Z,236.25
2018-05-04T05:18:07.517Z,292.50
2018-05-04T05:19:07.505Z,399.38
2018-05-04T05:21:00.410Z,489.38
2018-05-04T05:22:00.408Z,495.00
2018-05-04T05:23:53.297Z,478.13
2018-05-04T05:24:53.280Z,489.38
2018-05-04T05:26:46.255Z,495.00
2018-05-04T05:27:46.236Z,478.13
2018-05-04T05:29:39.167Z,483.75
2018-05-04T05:30:39.133Z,483.75
2018-05-04T05:32:32.150Z,483.75
2018-05-04T05:33:32.130Z,461.25
2018-05-04T05:35:25.117Z,506.25
2018-05-04T05:36:25.056Z,517.50
2018-05-04T05:38:18.064Z,506.25
2018-05-04T05:39:18.045Z,511.88
2018-05-04T05:41:11.000Z,511.88
2018-05-04T05:42:10.979Z,517.50
2018-05-04T05:44:03.965Z,478.13
2018-05-04T05:45:03.985Z,506.25
2018-05-04T05:46:56.897Z,528.75
2018-05-04T05:47:56.951Z,540.00
2018-05-04T05:49:49.797Z,551.25
2018-05-04T05:50:49.782Z,556.88
2018-05-04T05:52:42.727Z,551.25
2018-05-04T05:53:42.709Z,556.88
2018-05-04T05:55:35.698Z,500.63
2018-05-04T05:56:35.654Z,495.00
2018-05-04T05:58:28.604Z,472.50
2018-05-04T05:59:28.587Z,489.38
2018-05-04T06:01:22.217Z,545.63
2018-05-04T06:02:21.494Z,506.25
2018-05-04T06:03:21.498Z,495.00
2018-05-04T06:04:21.500Z,455.63
2018-05-04T06:05:21.488Z,461.25
2018-05-04T06:06:21.485Z,506.25
2018-05-04T06:07:21.481Z,500.63
2018-05-04T06:08:21.475Z,517.50
2018-05-04T06:09:21.535Z,511.88
2018-05-04T06:10:21.474Z,495.00
2018-05-04T06:11:21.493Z,478.13
2018-05-04T06:12:21.487Z,478.13
2018-05-04T06:13:21.462Z,466.88
2018-05-04T06:14:21.459Z,450.00
2018-05-04T06:15:21.455Z,466.88
2018-05-04T06:16:21.456Z,450.00
2018-05-04T06:17:21.455Z,461.25
2018-05-04T06:18:21.448Z,466.88
2018-05-04T06:19:21.441Z,444.38
2018-05-04T06:20:21.444Z,450.00
2018-05-04T06:21:21.438Z,506.25
2018-05-04T06:22:21.436Z,500.63
2018-05-04T06:23:21.433Z,545.63
2018-05-04T06:24:21.429Z,500.63
2018-05-04T06:25:21.428Z,517.50
2018-05-04T06:26:21.422Z,495.00
2018-05-04T06:27:21.417Z,472.50
2018-05-04T06:28:21.436Z,472.50
2018-05-04T06:29:21.405Z,517.50
2018-05-04T06:30:21.411Z,534.38
2018-05-04T06:31:21.412Z,579.38
2018-05-04T06:32:21.405Z,590.63
2018-05-04T06:33:21.401Z,568.13
2018-05-04T06:34:21.397Z,646.88
2018-05-04T06:35:21.398Z,708.75
2018-05-04T06:36:21.393Z,787.50
2018-05-04T06:37:21.452Z,838.13
2018-05-04T06:38:21.415Z,849.38
2018-05-04T06:39:21.380Z,1006.88
2018-05-04T06:40:21.388Z,900.00
2018-05-04T06:41:21.376Z,843.75
2018-05-04T06:42:21.375Z,838.13
2018-05-04T06:43:21.373Z,821.25
2018-05-04T06:44:21.369Z,725.63
2018-05-04T06:45:21.359Z,714.38
2018-05-04T06:46:21.360Z,765.00
2018-05-04T06:47:21.361Z,860.63
2018-05-04T06:48:21.392Z,922.50
2018-05-04T06:49:21.378Z,1040.63
2018-05-04T06:50:21.358Z,1276.88
2018-05-04T06:51:21.353Z,1344.38
2018-05-04T06:52:21.357Z,1029.38
2018-05-04T06:53:21.407Z,956.25
2018-05-04T06:54:21.381Z,978.75
2018-05-04T06:55:21.350Z,984.38
2018-05-04T06:56:21.345Z,1063.13
2018-05-04T06:57:21.361Z,1063.13
2018-05-04T06:58:21.338Z,1001.25
2018-05-04T06:59:21.429Z,1091.25
2018-05-04T07:00:21.348Z,1102.50
2018-05-04T07:01:23.475Z,1153.13
2018-05-04T07:02:21.344Z,1102.50
2018-05-04T07:03:21.336Z,1074.38
2018-05-04T07:04:21.329Z,990.00
2018-05-04T07:05:21.333Z,1029.38
2018-05-04T07:06:21.333Z,984.38
2018-05-04T07:07:21.395Z,1080.00
2018-05-04T07:08:21.332Z,1096.88
2018-05-04T07:09:21.411Z,1080.00
2018-05-04T07:10:21.392Z,1248.75
2018-05-04T07:11:21.326Z,1321.88
2018-05-04T07:12:21.329Z,1479.38
2018-05-04T07:13:21.325Z,2036.25
2018-05-04T07:14:21.335Z,2373.75
2018-05-04T07:15:21.328Z,2368.13
2018-05-04T07:16:21.327Z,2441.25
2018-05-04T07:17:21.332Z,1710.00
2018-05-04T07:18:21.328Z,2160.00
2018-05-04T07:19:21.333Z,2278.13
2018-05-04T07:20:21.334Z,1473.75
2018-05-04T07:21:21.340Z,2328.75
2018-05-04T07:22:21.341Z,2480.63
2018-05-04T07:23:21.349Z,2289.38
2018-05-04T07:24:21.346Z,1749.38
2018-05-04T07:25:21.352Z,2407.50
2018-05-04T07:26:21.357Z,2475.00
2018-05-04T07:27:21.365Z,2221.88
2018-05-04T07:28:21.372Z,2452.50
2018-05-04T07:29:21.380Z,2705.63
2018-05-04T07:30:21.380Z,2649.38
2018-05-04T07:31:21.382Z,2705.63
2018-05-04T07:32:21.390Z,2638.13
2018-05-04T07:33:21.384Z,2559.38
2018-05-04T07:34:21.392Z,1378.13
2018-05-04T07:35:21.412Z,888.75
2018-05-04T07:36:21.402Z,888.75
2018-05-04T07:37:21.452Z,1006.88
2018-05-04T07:38:21.429Z,1333.13
2018-05-04T07:39:21.435Z,1310.63
2018-05-04T07:40:21.424Z,1175.63
2018-05-04T07:41:21.443Z,1080.00
2018-05-04T07:42:21.515Z,1243.13
2018-05-04T07:43:21.441Z,2317.50
2018-05-04T07:44:21.457Z,1771.88
2018-05-04T07:45:21.484Z,1563.75
2018-05-04T07:46:21.546Z,2413.13
2018-05-04T07:47:21.472Z,2801.25
2018-05-04T07:48:21.515Z,3166.88
2018-05-04T07:49:21.476Z,3200.63
2018-05-04T07:50:21.519Z,2964.38
2018-05-04T07:51:21.488Z,2818.13
2018-05-04T07:52:21.489Z,2880.00
2018-05-04T07:53:21.499Z,3093.75
2018-05-04T07:54:21.501Z,3031.88
2018-05-04T07:55:21.513Z,2925.00
2018-05-04T07:56:21.516Z,3020.63
2018-05-04T07:57:21.519Z,3183.75
2018-05-04T07:58:21.537Z,3200.63
2018-05-04T07:59:21.539Z,2975.63
2018-05-04T08:00:21.543Z,2981.25
2018-05-04T08:01:21.554Z,2981.25
2018-05-04T08:02:21.568Z,3155.63
2018-05-04T08:03:21.568Z,3363.75
2018-05-04T08:04:21.585Z,3054.38
2018-05-04T08:05:21.587Z,3223.13
2018-05-04T08:06:21.590Z,3211.88
2018-05-04T08:07:21.604Z,3324.38
2018-05-04T08:08:21.605Z,3189.38
2018-05-04T08:09:21.618Z,2385.00
2018-05-04T08:10:21.621Z,3285.00
2018-05-04T08:11:21.630Z,2098.13
2018-05-04T08:12:21.644Z,3532.50
2018-05-04T08:13:21.658Z,3504.38
2018-05-04T08:14:21.653Z,3442.50
2018-05-04T08:15:21.666Z,3296.25
2018-05-04T08:16:21.686Z,2317.50
2018-05-04T08:17:21.749Z,2525.63
2018-05-04T08:18:21.705Z,3189.38
2018-05-04T08:19:21.721Z,3470.63
2018-05-04T08:20:21.723Z,3526.88
2018-05-04T08:21:21.732Z,2373.75
2018-05-04T08:22:21.744Z,1535.63
2018-05-04T08:23:21.753Z,2925.00
2018-05-04T08:24:21.768Z,2205.00
2018-05-04T08:25:21.776Z,1951.88
2018-05-04T08:26:21.784Z,2401.88
2018-05-04T08:27:21.829Z,1788.75
2018-05-04T08:28:21.801Z,1665.00
2018-05-04T08:29:21.869Z,3279.38
2018-05-04T08:30:21.822Z,1451.25
2018-05-04T08:31:21.830Z,2323.13
2018-05-04T08:32:21.839Z,1321.88
2018-05-04T08:33:21.847Z,1153.13
2018-05-04T08:34:21.862Z,1130.63
2018-05-04T08:35:21.878Z,1119.38
2018-05-04T08:36:21.864Z,1119.38
2018-05-04T08:37:21.907Z,1164.38
2018-05-04T08:38:21.916Z,1125.00
2018-05-04T08:39:21.891Z,1321.88
2018-05-04T08:40:21.947Z,1316.25
2018-05-04T08:41:21.907Z,1085.63
2018-05-04T08:42:21.905Z,984.38
2018-05-04T08:43:21.910Z,990.00
2018-05-04T08:44:21.915Z,1023.75
2018-05-04T08:45:21.917Z,1080.00
2018-05-04T08:46:21.968Z,1361.25
2018-05-04T08:47:21.969Z,1305.00
2018-05-04T08:48:21.976Z,1366.88
2018-05-04T08:49:21.929Z,1248.75
2018-05-04T08:50:21.939Z,1029.38
2018-05-04T08:51:21.961Z,860.63
2018-05-04T08:52:21.939Z,810.00
2018-05-04T08:53:21.943Z,736.88
2018-05-04T08:54:21.961Z,736.88
2018-05-04T08:55:21.954Z,691.88
2018-05-04T08:56:21.951Z,641.25
2018-05-04T08:57:22.005Z,703.13
2018-05-04T08:58:21.947Z,652.50
2018-05-04T08:59:21.953Z,630.00
2018-05-04T09:00:21.958Z,669.38
2018-05-04T09:01:21.962Z,663.75
2018-05-04T09:02:22.068Z,680.63
2018-05-04T09:03:21.954Z,720.00
2018-05-04T09:04:21.968Z,669.38
2018-05-04T09:05:22.032Z,646.88
2018-05-04T09:06:21.958Z,669.38
2018-05-04T09:07:22.005Z,748.13
2018-05-04T09:08:21.955Z,613.13
2018-05-04T09:09:21.957Z,680.63
2018-05-04T09:10:21.960Z,832.50
2018-05-04T09:11:21.955Z,725.63
2018-05-04T09:12:21.971Z,675.00
2018-05-04T09:13:21.955Z,669.38
2018-05-04T09:14:21.954Z,669.38
2018-05-04T09:15:21.953Z,776.25
2018-05-04T09:16:21.976Z,810.00
2018-05-04T09:17:21.956Z,753.75
2018-05-04T09:18:21.967Z,714.38
2018-05-04T09:19:21.949Z,624.38
2018-05-04T09:20:21.953Z,624.38
2018-05-04T09:21:21.950Z,618.75
2018-05-04T09:22:21.949Z,596.25
2018-05-04T09:23:21.949Z,568.13
2018-05-04T09:24:21.945Z,641.25
2018-05-04T09:25:22.005Z,697.50
2018-05-04T09:26:21.944Z,630.00
2018-05-04T09:27:21.947Z,641.25
2018-05-04T09:28:21.943Z,663.75
2018-05-04T09:29:21.945Z,759.38
2018-05-04T09:30:21.935Z,759.38
2018-05-04T09:31:21.952Z,804.38
2018-05-04T09:32:21.961Z,855.00
2018-05-04T09:33:21.939Z,911.25
2018-05-04T09:34:21.947Z,883.13
2018-05-04T09:35:21.937Z,956.25
2018-05-04T09:36:21.929Z,945.00
2018-05-04T09:37:22.835Z,1096.88
2018-05-04T09:38:21.929Z,1046.25
2018-05-04T09:39:21.932Z,1091.25
2018-05-04T09:40:21.924Z,1063.13
2018-05-04T09:41:21.931Z,1136.25
2018-05-04T09:42:21.931Z,1321.88
2018-05-04T09:43:21.942Z,1344.38
2018-05-04T09:44:21.942Z,1243.13
2018-05-04T09:45:21.953Z,1456.88
2018-05-04T09:46:21.949Z,1389.38
2018-05-04T09:47:21.928Z,1462.50
2018-05-04T09:48:21.930Z,1653.75
2018-05-04T09:49:21.927Z,1648.13
2018-05-04T09:50:21.930Z,1541.25
2018-05-04T09:51:21.929Z,1417.50
2018-05-04T09:52:21.932Z,1417.50
2018-05-04T09:53:21.933Z,1670.63
2018-05-04T09:54:21.938Z,1839.38
2018-05-04T09:55:21.925Z,2109.38
2018-05-04T09:56:21.939Z,4179.38
2018-05-04T09:57:21.938Z,2126.25
2018-05-04T09:58:21.960Z,2008.13
2018-05-04T09:59:21.941Z,2238.75
2018-05-04T10:00:21.944Z,4033.13
2018-05-04T10:01:21.971Z,2401.88
2018-05-04T10:02:21.955Z,2694.38
2018-05-04T10:03:21.968Z,4066.88
2018-05-04T10:04:21.975Z,4443.75
2018-05-04T10:05:21.981Z,3622.50
2018-05-04T10:06:21.976Z,4263.75
2018-05-04T10:07:21.990Z,3015.00
2018-05-04T10:08:21.992Z,2030.63
2018-05-04T10:09:22.000Z,3735.00
2018-05-04T10:10:22.017Z,2041.88
2018-05-04T10:11:22.023Z,4336.88
2018-05-04T10:12:22.026Z,1805.63
2018-05-04T10:13:22.038Z,2081.25
2018-05-04T10:14:22.045Z,2784.38
2018-05-04T10:15:22.056Z,3583.13
2018-05-04T10:16:22.067Z,3268.13
2018-05-04T10:17:22.068Z,2278.13
2018-05-04T10:18:22.093Z,1743.75
2018-05-04T10:19:22.083Z,1468.13
2018-05-04T10:20:22.102Z,4083.75
2018-05-04T10:21:22.112Z,2216.25
2018-05-04T10:22:22.203Z,2126.25
2018-05-04T10:23:22.129Z,1788.75
2018-05-04T10:24:22.139Z,2711.25
2018-05-04T10:25:22.148Z,2981.25
2018-05-04T10:26:22.161Z,2553.75
2018-05-04T10:27:22.164Z,1428.75
2018-05-04T10:28:22.173Z,1912.50
2018-05-04T10:29:22.191Z,1850.63
2018-05-04T10:30:22.198Z,1771.88
2018-05-04T10:31:22.212Z,3352.50
2018-05-04T10:32:22.217Z,4252.50
2018-05-04T10:33:22.221Z,3481.88
2018-05-04T10:34:22.237Z,3903.75
2018-05-04T10:35:22.245Z,1293.75
2018-05-04T10:36:22.253Z,1771.88
2018-05-04T10:37:22.297Z,2019.38
2018-05-04T10:38:22.353Z,4820.63
2018-05-04T10:39:22.286Z,4950.00
2018-05-04T10:40:22.305Z,2092.50
2018-05-04T10:41:22.298Z,1445.63
2018-05-04T10:42:22.308Z,1209.38
2018-05-04T10:43:22.318Z,1485.00
2018-05-04T10:44:22.325Z,3650.63
2018-05-04T10:45:22.347Z,4128.75
2018-05-04T10:46:22.358Z,1850.63
2018-05-04T10:47:22.349Z,4201.88
2018-05-04T10:48:22.364Z,4365.00
2018-05-04T10:49:22.372Z,2677.50
2018-05-04T10:50:22.378Z,4342.50
2018-05-04T10:51:22.385Z,1856.25
2018-05-04T10:52:22.395Z,1355.63
2018-05-04T10:53:22.404Z,1636.88
2018-05-04T10:54:22.413Z,1856.25
2018-05-04T10:55:22.418Z,1929.38
2018-05-04T10:56:22.450Z,2446.88
2018-05-04T10:57:22.435Z,1136.25
2018-05-04T10:58:22.450Z,1023.75
2018-05-04T10:59:22.460Z,1181.25
2018-05-04T11:00:22.464Z,1254.38
2018-05-04T11:01:22.474Z,978.75
2018-05-04T11:02:22.478Z,978.75
2018-05-04T11:03:22.480Z,928.13
2018-05-04T11:04:22.492Z,1057.50
2018-05-04T11:05:22.559Z,1209.38
2018-05-04T11:06:22.501Z,1254.38
2018-05-04T11:07:22.503Z,1355.63
2018-05-04T11:08:22.514Z,1316.25
2018-05-04T11:09:22.519Z,1260.00
2018-05-04T11:10:22.537Z,1209.38
2018-05-04T11:11:22.562Z,1074.38
2018-05-04T11:12:22.530Z,956.25
2018-05-04T11:13:22.542Z,984.38
2018-05-04T11:14:22.538Z,1243.13
2018-05-04T11:15:22.541Z,1299.38
2018-05-04T11:16:22.546Z,1411.88
2018-05-04T11:17:22.549Z,1704.38
2018-05-04T11:18:22.575Z,1738.13
2018-05-04T11:19:22.606Z,1541.25
2018-05-04T11:20:22.621Z,1732.50
2018-05-04T11:21:22.559Z,1558.13
2018-05-04T11:22:22.561Z,1361.25
2018-05-04T11:23:22.566Z,1546.88
2018-05-04T11:24:22.575Z,1282.50
2018-05-04T11:25:22.648Z,3735.00
2018-05-04T11:26:22.582Z,1434.38
2018-05-04T11:27:22.596Z,3099.38
2018-05-04T11:28:22.587Z,1147.50
2018-05-04T11:29:22.588Z,1293.75
2018-05-04T11:30:22.592Z,1462.50
2018-05-04T11:31:22.596Z,1710.00
2018-05-04T11:32:22.603Z,1580.63
2018-05-04T11:33:22.605Z,1203.75
2018-05-04T11:34:22.613Z,1153.13
2018-05-04T11:35:22.609Z,1102.50
2018-05-04T11:36:22.623Z,961.88
2018-05-04T11:37:22.611Z,883.13
2018-05-04T11:38:22.621Z,939.38
2018-05-04T11:39:22.651Z,905.63
2018-05-04T11:40:22.629Z,911.25
2018-05-04T11:41:22.629Z,916.88
2018-05-04T11:42:22.640Z,900.00
2018-05-04T11:43:22.636Z,939.38
2018-05-04T11:44:22.655Z,967.50
2018-05-04T11:45:22.662Z,1057.50
2018-05-04T11:46:22.694Z,945.00
2018-05-04T11:47:22.666Z,1153.13
2018-05-04T11:48:22.652Z,950.63
2018-05-04T11:49:22.654Z,888.75
2018-05-04T11:50:22.650Z,900.00
2018-05-04T11:51:22.654Z,995.63
2018-05-04T11:52:22.659Z,810.00
2018-05-04T11:53:22.658Z,956.25
2018-05-04T11:54:22.681Z,1096.88
2018-05-04T11:55:22.663Z,978.75
2018-05-04T11:56:22.665Z,765.00
2018-05-04T11:57:22.665Z,759.38
2018-05-04T11:58:22.665Z,804.38
2018-05-04T11:59:22.657Z,1057.50
2018-05-04T12:00:22.661Z,1091.25
2018-05-04T12:01:22.663Z,922.50
2018-05-04T12:02:22.712Z,933.75
2018-05-04T12:03:22.679Z,928.13
2018-05-04T12:04:22.688Z,922.50
2018-05-04T12:05:22.673Z,939.38
2018-05-04T12:06:22.677Z,950.63
2018-05-04T12:07:22.735Z,984.38
2018-05-04T12:08:22.685Z,849.38
2018-05-04T12:09:22.677Z,928.13
2018-05-04T12:10:22.679Z,1074.38
2018-05-04T12:11:22.685Z,956.25
2018-05-04T12:12:22.679Z,900.00
2018-05-04T12:13:22.685Z,916.88
2018-05-04T12:14:22.685Z,967.50
2018-05-04T12:15:22.682Z,1091.25
2018-05-04T12:16:22.704Z,815.63
2018-05-04T12:17:22.690Z,832.50
2018-05-04T12:18:22.683Z,1113.75
2018-05-04T12:19:22.689Z,1355.63
2018-05-04T12:20:22.686Z,1580.63
2018-05-04T12:21:22.689Z,1591.88
2018-05-04T12:22:22.688Z,1417.50
2018-05-04T12:23:22.690Z,1417.50
2018-05-04T12:24:22.698Z,1141.88
2018-05-04T12:25:22.692Z,1029.38
2018-05-04T12:26:22.693Z,1006.88
2018-05-04T12:27:22.699Z,961.88
2018-05-04T12:28:22.695Z,787.50
2018-05-04T12:29:22.702Z,849.38
2018-05-04T12:30:22.704Z,798.75
2018-05-04T12:31:22.703Z,736.88
2018-05-04T12:32:22.705Z,1006.88
2018-05-04T12:33:22.710Z,1220.63
2018-05-04T12:34:22.710Z,945.00
2018-05-04T12:35:22.710Z,905.63
2018-05-04T12:36:22.711Z,843.75
2018-05-04T12:37:22.715Z,961.88
2018-05-04T12:38:22.712Z,911.25
2018-05-04T12:39:22.716Z,956.25
2018-05-04T12:40:22.774Z,928.13
2018-05-04T12:41:22.720Z,1023.75
2018-05-04T12:42:22.718Z,888.75
2018-05-04T12:43:22.736Z,691.88
2018-05-04T12:44:22.718Z,579.38
2018-05-04T12:45:22.723Z,798.75
2018-05-04T12:46:22.723Z,871.88
2018-05-04T12:47:22.727Z,675.00
2018-05-04T12:48:22.725Z,675.00
2018-05-04T12:49:22.727Z,781.88
2018-05-04T12:50:22.726Z,990.00
2018-05-04T12:51:22.729Z,905.63
2018-05-04T12:52:22.728Z,669.38
2018-05-04T12:53:22.743Z,579.38
2018-05-04T12:54:22.721Z,528.75
2018-05-04T12:55:22.728Z,573.75
2018-05-04T12:56:22.753Z,607.50
2018-05-04T12:57:22.727Z,630.00
2018-05-04T12:58:22.730Z,838.13
2018-05-04T12:59:22.730Z,1018.13
2018-05-04T13:00:22.731Z,720.00
2018-05-04T13:01:22.757Z,630.00
2018-05-04T13:02:22.730Z,624.38
2018-05-04T13:03:22.734Z,585.00
2018-05-04T13:04:22.757Z,686.25
2018-05-04T13:05:22.751Z,528.75
2018-05-04T13:06:22.735Z,393.75
2018-05-04T13:07:22.766Z,393.75
2018-05-04T13:08:22.728Z,483.75
2018-05-04T13:09:22.727Z,483.75
2018-05-04T13:10:22.739Z,365.63
2018-05-04T13:11:22.749Z,348.75
2018-05-04T13:12:22.738Z,393.75
2018-05-04T13:13:22.767Z,331.88
2018-05-04T13:14:22.754Z,309.38
2018-05-04T13:15:22.780Z,343.13
2018-05-04T13:16:22.784Z,337.50
2018-05-04T13:17:22.790Z,309.38
2018-05-04T13:18:22.726Z,315.00
2018-05-04T13:19:22.725Z,320.63
2018-05-04T13:20:22.730Z,331.88
2018-05-04T13:21:22.869Z,337.50
2018-05-04T13:22:22.709Z,405.00
2018-05-04T13:23:22.765Z,433.13
2018-05-04T13:24:22.711Z,495.00
2018-05-04T13:25:22.713Z,646.88
2018-05-04T13:26:22.728Z,703.13
2018-05-04T13:27:22.716Z,601.88
2018-05-04T13:28:22.756Z,652.50
2018-05-04T13:29:22.713Z,720.00
2018-05-04T13:30:22.711Z,630.00
2018-05-04T13:31:22.712Z,590.63
2018-05-04T13:32:22.709Z,523.13
2018-05-04T13:33:22.767Z,573.75
2018-05-04T13:34:22.709Z,517.50
2018-05-04T13:35:22.711Z,556.88
2018-05-04T13:36:22.697Z,573.75
2018-05-04T13:37:22.707Z,742.50
2018-05-04T13:38:22.702Z,770.63
2018-05-04T13:39:22.705Z,826.88
2018-05-04T13:40:22.704Z,995.63
2018-05-04T13:41:22.721Z,1108.13
2018-05-04T13:42:22.721Z,1113.75
2018-05-04T13:43:22.702Z,1096.88
2018-05-04T13:44:22.701Z,1029.38
2018-05-04T13:45:22.700Z,1051.88
2018-05-04T13:46:22.702Z,978.75
2018-05-04T13:47:22.700Z,1001.25
2018-05-04T13:48:22.702Z,978.75
2018-05-04T13:49:22.702Z,900.00
2018-05-04T13:50:22.700Z,725.63
2018-05-04T13:51:22.710Z,613.13
2018-05-04T13:52:22.703Z,523.13
2018-05-04T13:53:22.703Z,663.75
2018-05-04T13:54:22.704Z,720.00
2018-05-04T13:55:22.702Z,753.75
2018-05-04T13:56:22.704Z,736.88
2018-05-04T13:57:22.704Z,866.25
2018-05-04T13:58:22.725Z,922.50
2018-05-04T13:59:23.589Z,916.88
2018-05-04T14:00:22.705Z,826.88
2018-05-04T14:01:22.706Z,776.25
2018-05-04T14:02:22.710Z,691.88
2018-05-04T14:03:22.708Z,613.13
2018-05-04T14:04:22.707Z,556.88
2018-05-04T14:05:22.775Z,551.25
2018-05-04T14:06:22.711Z,613.13
2018-05-04T14:07:22.755Z,534.38
2018-05-04T14:08:22.824Z,495.00
2018-05-04T14:09:22.703Z,438.75
2018-05-04T14:10:22.708Z,410.63
2018-05-04T14:11:22.708Z,433.13
2018-05-04T14:12:22.706Z,399.38
2018-05-04T14:13:22.707Z,399.38
2018-05-04T14:14:22.707Z,500.63
2018-05-04T14:15:22.714Z,635.63
2018-05-04T14:16:22.697Z,765.00
2018-05-04T14:17:22.708Z,714.38